sensor_id;sensor_type;location;lat;lon;timestamp;temperature;humidity
8093;DHT22;4089;52.420;13.334;2023-07-02T00:00:00;18.60;99.90
8093;DHT22;4089;52.420;13.334;2023-07-02T00:02:27;18.70;99.90
8093;DHT22;4089;52.420;13.334;2023-07-02T00:04:58;18.50;99.90
8093;DHT22;4089;52.420;13.334;2023-07-02T00:07:25;18.60;99.90
8093;DHT22;4089;52.420;13.334;2023-07-02T00:09:55;18.50;99.90
8093;DHT22;4089;52.420;13.334;2023-07-02T00:12:21;18.50;99.90
8093;DHT22;4089;52.420;13.334;2023-07-02T00:14:49;18.60;99.90
8093;DHT22;4089;52.420;13.334;2023-07-02T00:17:20;18.60;99.90
8093;DHT22;4089;52.420;13.334;2023-07-02T00:19:47;18.60;99.90
8093;DHT22;4089;52.420;13.334;2023-07-02T00:22:19;18.70;99.90
8093;DHT22;4089;52.420;13.334;2023-07-02T00:24:46;18.70;99.90
8093;DHT22;4089;52.420;13.334;2023-07-02T00:27:13;18.50;99.90
8093;DHT22;4089;52.420;13.334;2023-07-02T00:29:40;18.60;99.90
8093;DHT22;4089;52.420;13.334;2023-07-02T00:32:07;18.60;99.90
8093;DHT22;4089;52.420;13.334;2023-07-02T00:34:34;18.70;99.90
8093;DHT22;4089;52.420;13.334;2023-07-02T00:37:00;18.60;99.90
8093;DHT22;4089;52.420;13.334;2023-07-02T00:39:27;18.60;99.90
8093;DHT22;4089;52.420;13.334;2023-07-02T00:41:54;18.60;99.90
8093;DHT22;4089;52.420;13.334;2023-07-02T00:44:26;18.60;99.90
8093;DHT22;4089;52.420;13.334;2023-07-02T00:46:53;18.70;99.90
8093;DHT22;4089;52.420;13.334;2023-07-02T00:49:19;18.80;99.90
8093;DHT22;4089;52.420;13.334;2023-07-02T00:51:47;18.80;99.90
8093;DHT22;4089;52.420;13.334;2023-07-02T00:54:13;18.70;99.90
8093;DHT22;4089;52.420;13.334;2023-07-02T00:56:41;18.70;99.90
8093;DHT22;4089;52.420;13.334;2023-07-02T00:59:08;18.70;99.90
8093;DHT22;4089;52.420;13.334;2023-07-02T01:01:34;18.70;99.90
8093;DHT22;4089;52.420;13.334;2023-07-02T01:04:06;18.70;99.90
8093;DHT22;4089;52.420;13.334;2023-07-02T01:06:39;18.70;99.90
8093;DHT22;4089;52.420;13.334;2023-07-02T01:09:09;18.70;99.90
8093;DHT22;4089;52.420;13.334;2023-07-02T01:11:48;18.70;99.90
8093;DHT22;4089;52.420;13.334;2023-07-02T01:14:29;18.70;99.90
8093;DHT22;4089;52.420;13.334;2023-07-02T01:16:57;18.60;99.90
8093;DHT22;4089;52.420;13.334;2023-07-02T01:22:22;18.60;99.90
8093;DHT22;4089;52.420;13.334;2023-07-02T01:24:50;18.60;99.90
8093;DHT22;4089;52.420;13.334;2023-07-02T01:27:18;18.50;99.90
8093;DHT22;4089;52.420;13.334;2023-07-02T01:29:45;18.50;99.90
8093;DHT22;4089;52.420;13.334;2023-07-02T01:32:14;18.50;99.90
8093;DHT22;4089;52.420;13.334;2023-07-02T01:34:40;18.50;99.90
8093;DHT22;4089;52.420;13.334;2023-07-02T01:37:07;18.50;99.90
8093;DHT22;4089;52.420;13.334;2023-07-02T01:39:36;18.50;99.90
8093;DHT22;4089;52.420;13.334;2023-07-02T01:44:39;18.40;99.90
8093;DHT22;4089;52.420;13.334;2023-07-02T01:47:06;18.50;99.90
8093;DHT22;4089;52.420;13.334;2023-07-02T01:49:33;18.40;99.90
8093;DHT22;4089;52.420;13.334;2023-07-02T01:52:00;18.30;99.90
8093;DHT22;4089;52.420;13.334;2023-07-02T01:54:27;18.30;99.90
8093;DHT22;4089;52.420;13.334;2023-07-02T01:56:55;18.30;99.90
8093;DHT22;4089;52.420;13.334;2023-07-02T01:59:22;18.30;99.90
8093;DHT22;4089;52.420;13.334;2023-07-02T02:01:49;18.30;99.90
8093;DHT22;4089;52.420;13.334;2023-07-02T02:04:16;18.20;99.90
8093;DHT22;4089;52.420;13.334;2023-07-02T02:06:44;18.30;99.90
8093;DHT22;4089;52.420;13.334;2023-07-02T02:09:11;18.40;99.90
8093;DHT22;4089;52.420;13.334;2023-07-02T02:11:45;18.30;99.90
8093;DHT22;4089;52.420;13.334;2023-07-02T02:14:12;18.30;99.90
8093;DHT22;4089;52.420;13.334;2023-07-02T02:16:39;18.30;99.90
8093;DHT22;4089;52.420;13.334;2023-07-02T02:19:06;18.20;99.90
8093;DHT22;4089;52.420;13.334;2023-07-02T02:21:33;18.20;99.90
8093;DHT22;4089;52.420;13.334;2023-07-02T02:23:59;18.20;99.90
8093;DHT22;4089;52.420;13.334;2023-07-02T02:26:26;18.20;99.90
8093;DHT22;4089;52.420;13.334;2023-07-02T02:28:53;18.20;99.90
8093;DHT22;4089;52.420;13.334;2023-07-02T02:31:20;18.10;99.90
8093;DHT22;4089;52.420;13.334;2023-07-02T02:33:47;18.20;99.90
8093;DHT22;4089;52.420;13.334;2023-07-02T02:36:13;18.10;99.90
8093;DHT22;4089;52.420;13.334;2023-07-02T02:38:40;18.00;99.90
8093;DHT22;4089;52.420;13.334;2023-07-02T02:41:07;18.00;99.90
8093;DHT22;4089;52.420;13.334;2023-07-02T02:43:35;18.10;99.90
8093;DHT22;4089;52.420;13.334;2023-07-02T02:46:02;18.10;99.90
8093;DHT22;4089;52.420;13.334;2023-07-02T02:48:28;18.00;99.90
8093;DHT22;4089;52.420;13.334;2023-07-02T02:50:55;18.00;99.90
8093;DHT22;4089;52.420;13.334;2023-07-02T02:53:22;18.00;99.90
8093;DHT22;4089;52.420;13.334;2023-07-02T02:55:49;17.90;99.90
8093;DHT22;4089;52.420;13.334;2023-07-02T02:58:15;18.00;99.90
8093;DHT22;4089;52.420;13.334;2023-07-02T03:00:42;17.90;99.90
8093;DHT22;4089;52.420;13.334;2023-07-02T03:03:12;17.90;99.90
8093;DHT22;4089;52.420;13.334;2023-07-02T03:05:40;17.80;99.90
8093;DHT22;4089;52.420;13.334;2023-07-02T03:08:07;17.90;99.90
8093;DHT22;4089;52.420;13.334;2023-07-02T03:10:35;17.70;99.90
8093;DHT22;4089;52.420;13.334;2023-07-02T03:13:02;17.80;99.90
8093;DHT22;4089;52.420;13.334;2023-07-02T03:15:29;17.70;99.90
8093;DHT22;4089;52.420;13.334;2023-07-02T03:17:56;17.80;99.90
8093;DHT22;4089;52.420;13.334;2023-07-02T03:20:23;17.60;99.90
8093;DHT22;4089;52.420;13.334;2023-07-02T03:22:50;17.70;99.90
8093;DHT22;4089;52.420;13.334;2023-07-02T03:25:17;17.70;99.90
8093;DHT22;4089;52.420;13.334;2023-07-02T03:27:44;17.80;99.90
8093;DHT22;4089;52.420;13.334;2023-07-02T03:30:11;17.80;99.90
8093;DHT22;4089;52.420;13.334;2023-07-02T03:32:38;17.70;99.90
8093;DHT22;4089;52.420;13.334;2023-07-02T03:35:05;17.70;99.90
8093;DHT22;4089;52.420;13.334;2023-07-02T03:37:32;17.70;99.90
8093;DHT22;4089;52.420;13.334;2023-07-02T03:39:59;17.70;99.90
8093;DHT22;4089;52.420;13.334;2023-07-02T03:42:25;17.80;99.90
8093;DHT22;4089;52.420;13.334;2023-07-02T03:44:52;17.80;99.90
8093;DHT22;4089;52.420;13.334;2023-07-02T03:47:19;17.80;99.90
8093;DHT22;4089;52.420;13.334;2023-07-02T03:49:47;17.80;99.90
8093;DHT22;4089;52.420;13.334;2023-07-02T03:52:14;17.70;99.90
8093;DHT22;4089;52.420;13.334;2023-07-02T03:54:41;17.70;99.90
8093;DHT22;4089;52.420;13.334;2023-07-02T03:57:08;17.70;99.90
8093;DHT22;4089;52.420;13.334;2023-07-02T03:59:35;17.80;99.90
8093;DHT22;4089;52.420;13.334;2023-07-02T04:02:01;17.80;99.90
8093;DHT22;4089;52.420;13.334;2023-07-02T04:04:28;17.80;99.90
8093;DHT22;4089;52.420;13.334;2023-07-02T04:06:55;17.70;99.90
8093;DHT22;4089;52.420;13.334;2023-07-02T04:09:22;17.80;99.90
8093;DHT22;4089;52.420;13.334;2023-07-02T04:11:49;17.70;99.90
8093;DHT22;4089;52.420;13.334;2023-07-02T04:14:16;17.70;99.90
8093;DHT22;4089;52.420;13.334;2023-07-02T04:16:44;17.80;99.90
8093;DHT22;4089;52.420;13.334;2023-07-02T04:19:13;17.70;99.90
8093;DHT22;4089;52.420;13.334;2023-07-02T04:21:40;17.80;99.90
8093;DHT22;4089;52.420;13.334;2023-07-02T04:24:07;17.80;99.90
8093;DHT22;4089;52.420;13.334;2023-07-02T04:26:34;17.80;99.90
8093;DHT22;4089;52.420;13.334;2023-07-02T04:29:23;17.90;99.90
8093;DHT22;4089;52.420;13.334;2023-07-02T04:31:49;17.90;99.90
8093;DHT22;4089;52.420;13.334;2023-07-02T04:34:16;17.80;99.90
8093;DHT22;4089;52.420;13.334;2023-07-02T04:36:43;17.90;99.90
8093;DHT22;4089;52.420;13.334;2023-07-02T04:39:10;17.90;99.90
8093;DHT22;4089;52.420;13.334;2023-07-02T04:41:37;17.90;99.90
8093;DHT22;4089;52.420;13.334;2023-07-02T04:44:04;18.00;99.90
8093;DHT22;4089;52.420;13.334;2023-07-02T04:46:31;17.90;99.90
8093;DHT22;4089;52.420;13.334;2023-07-02T04:48:58;17.90;99.90
8093;DHT22;4089;52.420;13.334;2023-07-02T04:51:25;17.90;99.90
8093;DHT22;4089;52.420;13.334;2023-07-02T04:53:52;18.00;99.90
8093;DHT22;4089;52.420;13.334;2023-07-02T04:56:18;18.00;99.90
8093;DHT22;4089;52.420;13.334;2023-07-02T04:58:45;18.00;99.90
8093;DHT22;4089;52.420;13.334;2023-07-02T05:01:12;18.20;99.90
8093;DHT22;4089;52.420;13.334;2023-07-02T05:03:39;18.20;99.90
8093;DHT22;4089;52.420;13.334;2023-07-02T05:06:06;18.00;99.90
8093;DHT22;4089;52.420;13.334;2023-07-02T05:08:33;18.00;99.90
8093;DHT22;4089;52.420;13.334;2023-07-02T05:11:00;18.20;99.90
8093;DHT22;4089;52.420;13.334;2023-07-02T05:13:27;18.30;99.90
8093;DHT22;4089;52.420;13.334;2023-07-02T05:15:53;18.40;99.90
8093;DHT22;4089;52.420;13.334;2023-07-02T05:18:20;18.60;99.90
8093;DHT22;4089;52.420;13.334;2023-07-02T05:20:47;18.70;99.90
8093;DHT22;4089;52.420;13.334;2023-07-02T05:23:14;18.70;99.90
8093;DHT22;4089;52.420;13.334;2023-07-02T05:25:41;18.60;99.90
8093;DHT22;4089;52.420;13.334;2023-07-02T05:28:08;18.70;99.90
8093;DHT22;4089;52.420;13.334;2023-07-02T05:30:35;18.70;99.90
8093;DHT22;4089;52.420;13.334;2023-07-02T05:33:01;18.70;99.90
8093;DHT22;4089;52.420;13.334;2023-07-02T05:35:28;18.80;99.90
8093;DHT22;4089;52.420;13.334;2023-07-02T05:37:55;18.80;99.90
8093;DHT22;4089;52.420;13.334;2023-07-02T05:40:22;18.80;99.90
8093;DHT22;4089;52.420;13.334;2023-07-02T05:42:49;19.00;99.90
8093;DHT22;4089;52.420;13.334;2023-07-02T05:45:15;19.00;99.90
8093;DHT22;4089;52.420;13.334;2023-07-02T05:47:42;18.90;99.90
8093;DHT22;4089;52.420;13.334;2023-07-02T05:50:09;18.80;99.90
8093;DHT22;4089;52.420;13.334;2023-07-02T05:52:36;18.80;99.90
8093;DHT22;4089;52.420;13.334;2023-07-02T05:55:03;18.60;99.90
8093;DHT22;4089;52.420;13.334;2023-07-02T05:57:30;18.50;99.90
8093;DHT22;4089;52.420;13.334;2023-07-02T05:59:57;18.60;99.90
8093;DHT22;4089;52.420;13.334;2023-07-02T06:02:24;18.70;99.90
8093;DHT22;4089;52.420;13.334;2023-07-02T06:04:51;18.70;99.90
8093;DHT22;4089;52.420;13.334;2023-07-02T06:07:18;18.70;99.90
8093;DHT22;4089;52.420;13.334;2023-07-02T06:09:45;18.70;99.90
8093;DHT22;4089;52.420;13.334;2023-07-02T06:12:12;18.70;99.90
8093;DHT22;4089;52.420;13.334;2023-07-02T06:14:39;18.90;99.90
8093;DHT22;4089;52.420;13.334;2023-07-02T06:17:07;19.20;99.90
8093;DHT22;4089;52.420;13.334;2023-07-02T06:19:37;19.30;99.90
8093;DHT22;4089;52.420;13.334;2023-07-02T06:22:04;19.40;99.90
8093;DHT22;4089;52.420;13.334;2023-07-02T06:24:31;19.30;99.90
8093;DHT22;4089;52.420;13.334;2023-07-02T06:26:58;19.40;99.90
8093;DHT22;4089;52.420;13.334;2023-07-02T06:29:25;19.50;99.90
8093;DHT22;4089;52.420;13.334;2023-07-02T06:31:52;19.40;99.90
8093;DHT22;4089;52.420;13.334;2023-07-02T06:34:18;19.40;99.90
8093;DHT22;4089;52.420;13.334;2023-07-02T06:36:45;19.10;99.90
8093;DHT22;4089;52.420;13.334;2023-07-02T06:39:12;19.00;99.90
8093;DHT22;4089;52.420;13.334;2023-07-02T06:41:39;19.10;99.90
8093;DHT22;4089;52.420;13.334;2023-07-02T06:44:06;19.00;99.90
8093;DHT22;4089;52.420;13.334;2023-07-02T06:46:32;19.20;99.90
8093;DHT22;4089;52.420;13.334;2023-07-02T06:48:59;19.00;99.90
8093;DHT22;4089;52.420;13.334;2023-07-02T06:51:26;19.30;99.90
8093;DHT22;4089;52.420;13.334;2023-07-02T06:53:54;19.40;99.90
8093;DHT22;4089;52.420;13.334;2023-07-02T06:56:20;19.50;99.90
8093;DHT22;4089;52.420;13.334;2023-07-02T06:58:47;19.80;99.90
8093;DHT22;4089;52.420;13.334;2023-07-02T07:01:14;20.00;99.90
8093;DHT22;4089;52.420;13.334;2023-07-02T07:03:41;19.70;99.90
8093;DHT22;4089;52.420;13.334;2023-07-02T07:06:08;19.70;99.90
8093;DHT22;4089;52.420;13.334;2023-07-02T07:08:37;19.80;99.90
8093;DHT22;4089;52.420;13.334;2023-07-02T07:11:05;19.80;99.90
8093;DHT22;4089;52.420;13.334;2023-07-02T07:13:32;19.80;99.90
8093;DHT22;4089;52.420;13.334;2023-07-02T07:15:59;20.00;99.90
8093;DHT22;4089;52.420;13.334;2023-07-02T07:18:26;20.10;99.90
8093;DHT22;4089;52.420;13.334;2023-07-02T07:20:56;20.20;99.90
8093;DHT22;4089;52.420;13.334;2023-07-02T07:23:23;20.10;99.90
8093;DHT22;4089;52.420;13.334;2023-07-02T07:25:50;19.90;99.90
8093;DHT22;4089;52.420;13.334;2023-07-02T07:28:17;19.90;99.90
8093;DHT22;4089;52.420;13.334;2023-07-02T07:30:44;20.00;99.90
8093;DHT22;4089;52.420;13.334;2023-07-02T07:33:12;20.20;99.90
8093;DHT22;4089;52.420;13.334;2023-07-02T07:35:38;20.30;99.90
8093;DHT22;4089;52.420;13.334;2023-07-02T07:38:05;20.50;99.90
8093;DHT22;4089;52.420;13.334;2023-07-02T07:40:32;20.50;99.90
8093;DHT22;4089;52.420;13.334;2023-07-02T07:42:59;20.40;99.90
8093;DHT22;4089;52.420;13.334;2023-07-02T07:45:25;20.10;99.90
8093;DHT22;4089;52.420;13.334;2023-07-02T07:47:52;20.00;99.90
8093;DHT22;4089;52.420;13.334;2023-07-02T07:50:19;19.80;99.90
8093;DHT22;4089;52.420;13.334;2023-07-02T07:52:47;19.50;99.90
8093;DHT22;4089;52.420;13.334;2023-07-02T07:55:14;19.40;99.90
8093;DHT22;4089;52.420;13.334;2023-07-02T07:57:41;19.40;99.90
8093;DHT22;4089;52.420;13.334;2023-07-02T08:00:08;19.30;99.90
8093;DHT22;4089;52.420;13.334;2023-07-02T08:02:38;19.30;99.90
8093;DHT22;4089;52.420;13.334;2023-07-02T08:05:06;19.40;99.90
8093;DHT22;4089;52.420;13.334;2023-07-02T08:07:34;19.30;99.90
8093;DHT22;4089;52.420;13.334;2023-07-02T08:10:01;19.30;99.90
8093;DHT22;4089;52.420;13.334;2023-07-02T08:12:29;19.30;99.90
8093;DHT22;4089;52.420;13.334;2023-07-02T08:14:56;19.40;99.90
8093;DHT22;4089;52.420;13.334;2023-07-02T08:17:23;19.30;99.90
8093;DHT22;4089;52.420;13.334;2023-07-02T08:19:50;19.40;99.90
8093;DHT22;4089;52.420;13.334;2023-07-02T08:22:17;19.50;99.90
8093;DHT22;4089;52.420;13.334;2023-07-02T08:24:44;19.50;99.90
8093;DHT22;4089;52.420;13.334;2023-07-02T08:27:11;19.60;99.90
8093;DHT22;4089;52.420;13.334;2023-07-02T08:29:40;19.50;99.90
8093;DHT22;4089;52.420;13.334;2023-07-02T08:32:07;19.10;99.90
8093;DHT22;4089;52.420;13.334;2023-07-02T08:34:34;19.10;99.90
8093;DHT22;4089;52.420;13.334;2023-07-02T08:37:01;19.00;99.90
8093;DHT22;4089;52.420;13.334;2023-07-02T08:39:28;18.90;99.90
8093;DHT22;4089;52.420;13.334;2023-07-02T08:41:55;18.80;99.90
8093;DHT22;4089;52.420;13.334;2023-07-02T08:44:22;18.90;99.90
8093;DHT22;4089;52.420;13.334;2023-07-02T08:46:49;18.90;99.90
8093;DHT22;4089;52.420;13.334;2023-07-02T08:49:17;18.80;99.90
8093;DHT22;4089;52.420;13.334;2023-07-02T08:51:45;18.70;99.90
8093;DHT22;4089;52.420;13.334;2023-07-02T08:54:13;18.70;99.90
8093;DHT22;4089;52.420;13.334;2023-07-02T08:56:41;18.70;99.90
8093;DHT22;4089;52.420;13.334;2023-07-02T08:59:09;18.70;99.90
8093;DHT22;4089;52.420;13.334;2023-07-02T09:01:48;18.80;99.90
8093;DHT22;4089;52.420;13.334;2023-07-02T09:04:21;18.70;99.90
8093;DHT22;4089;52.420;13.334;2023-07-02T09:06:48;18.50;99.90
8093;DHT22;4089;52.420;13.334;2023-07-02T09:09:15;18.70;99.90
8093;DHT22;4089;52.420;13.334;2023-07-02T09:11:49;18.80;99.90
8093;DHT22;4089;52.420;13.334;2023-07-02T09:14:27;18.90;99.90
8093;DHT22;4089;52.420;13.334;2023-07-02T09:17:04;18.80;99.90
8093;DHT22;4089;52.420;13.334;2023-07-02T09:19:33;18.60;99.90
8093;DHT22;4089;52.420;13.334;2023-07-02T09:22:00;18.70;99.90
8093;DHT22;4089;52.420;13.334;2023-07-02T09:24:29;18.70;99.90
8093;DHT22;4089;52.420;13.334;2023-07-02T09:27:00;18.60;99.90
8093;DHT22;4089;52.420;13.334;2023-07-02T09:29:32;18.50;99.90
8093;DHT22;4089;52.420;13.334;2023-07-02T09:32:03;18.50;99.90
8093;DHT22;4089;52.420;13.334;2023-07-02T09:34:35;18.70;99.90
8093;DHT22;4089;52.420;13.334;2023-07-02T09:37:04;18.70;99.90
8093;DHT22;4089;52.420;13.334;2023-07-02T09:39:35;19.00;99.90
8093;DHT22;4089;52.420;13.334;2023-07-02T09:42:05;19.30;99.90
8093;DHT22;4089;52.420;13.334;2023-07-02T09:44:34;19.50;99.90
8093;DHT22;4089;52.420;13.334;2023-07-02T09:47:08;19.60;99.90
8093;DHT22;4089;52.420;13.334;2023-07-02T09:52:08;19.70;99.90
8093;DHT22;4089;52.420;13.334;2023-07-02T09:54:36;19.60;99.90
8093;DHT22;4089;52.420;13.334;2023-07-02T09:57:04;19.10;99.90
8093;DHT22;4089;52.420;13.334;2023-07-02T09:59:33;19.10;99.90
8093;DHT22;4089;52.420;13.334;2023-07-02T10:02:00;19.20;99.90
8093;DHT22;4089;52.420;13.334;2023-07-02T10:04:27;19.10;99.90
8093;DHT22;4089;52.420;13.334;2023-07-02T10:06:56;19.40;99.90
8093;DHT22;4089;52.420;13.334;2023-07-02T10:09:42;19.80;99.90
8093;DHT22;4089;52.420;13.334;2023-07-02T10:12:20;19.90;99.90
8093;DHT22;4089;52.420;13.334;2023-07-02T10:14:49;20.00;99.90
8093;DHT22;4089;52.420;13.334;2023-07-02T10:17:29;20.00;99.90
8093;DHT22;4089;52.420;13.334;2023-07-02T10:20:03;20.20;99.90
8093;DHT22;4089;52.420;13.334;2023-07-02T10:22:43;20.30;99.90
8093;DHT22;4089;52.420;13.334;2023-07-02T10:25:10;20.50;99.90
8093;DHT22;4089;52.420;13.334;2023-07-02T10:27:39;20.70;99.90
8093;DHT22;4089;52.420;13.334;2023-07-02T10:30:07;20.70;99.90
8093;DHT22;4089;52.420;13.334;2023-07-02T10:32:35;20.70;99.90
8093;DHT22;4089;52.420;13.334;2023-07-02T10:37:40;20.80;99.90
8093;DHT22;4089;52.420;13.334;2023-07-02T10:40:07;20.60;99.90
8093;DHT22;4089;52.420;13.334;2023-07-02T10:42:53;20.60;99.90
8093;DHT22;4089;52.420;13.334;2023-07-02T10:45:31;20.70;99.90
8093;DHT22;4089;52.420;13.334;2023-07-02T10:47:58;20.80;99.90
8093;DHT22;4089;52.420;13.334;2023-07-02T10:50:26;21.00;99.90
8093;DHT22;4089;52.420;13.334;2023-07-02T10:52:53;21.10;99.90
8093;DHT22;4089;52.420;13.334;2023-07-02T10:55:22;21.20;99.90
8093;DHT22;4089;52.420;13.334;2023-07-02T10:57:50;21.30;99.90
8093;DHT22;4089;52.420;13.334;2023-07-02T11:00:18;21.50;99.90
8093;DHT22;4089;52.420;13.334;2023-07-02T11:02:45;21.50;99.90
8093;DHT22;4089;52.420;13.334;2023-07-02T11:05:13;21.20;99.90
8093;DHT22;4089;52.420;13.334;2023-07-02T11:07:42;21.10;99.90
8093;DHT22;4089;52.420;13.334;2023-07-02T11:10:10;21.00;99.90
8093;DHT22;4089;52.420;13.334;2023-07-02T11:12:38;21.10;99.90
8093;DHT22;4089;52.420;13.334;2023-07-02T11:15:23;21.10;99.90
8093;DHT22;4089;52.420;13.334;2023-07-02T11:17:50;21.50;99.90
8093;DHT22;4089;52.420;13.334;2023-07-02T11:20:17;21.50;99.90
8093;DHT22;4089;52.420;13.334;2023-07-02T11:22:43;21.60;99.90
8093;DHT22;4089;52.420;13.334;2023-07-02T11:25:18;21.70;99.90
8093;DHT22;4089;52.420;13.334;2023-07-02T11:27:48;21.60;99.90
8093;DHT22;4089;52.420;13.334;2023-07-02T11:30:15;21.40;99.90
8093;DHT22;4089;52.420;13.334;2023-07-02T11:35:16;21.80;99.90
8093;DHT22;4089;52.420;13.334;2023-07-02T11:37:43;22.00;99.90
8093;DHT22;4089;52.420;13.334;2023-07-02T11:40:11;22.30;99.90
8093;DHT22;4089;52.420;13.334;2023-07-02T11:42:38;22.40;98.50
8093;DHT22;4089;52.420;13.334;2023-07-02T11:45:05;22.40;99.30
8093;DHT22;4089;52.420;13.334;2023-07-02T11:47:32;22.60;99.90
8093;DHT22;4089;52.420;13.334;2023-07-02T11:49:59;22.80;99.90
8093;DHT22;4089;52.420;13.334;2023-07-02T11:52:46;22.80;97.30
8093;DHT22;4089;52.420;13.334;2023-07-02T11:55:13;22.70;98.60
8093;DHT22;4089;52.420;13.334;2023-07-02T11:57:42;22.70;99.10
8093;DHT22;4089;52.420;13.334;2023-07-02T12:00:09;22.90;99.30
8093;DHT22;4089;52.420;13.334;2023-07-02T12:02:36;23.10;97.30
8093;DHT22;4089;52.420;13.334;2023-07-02T12:05:03;22.90;96.60
8093;DHT22;4089;52.420;13.334;2023-07-02T12:07:32;22.60;96.60
8093;DHT22;4089;52.420;13.334;2023-07-02T12:09:58;22.50;96.90
8093;DHT22;4089;52.420;13.334;2023-07-02T12:12:25;22.60;96.90
8093;DHT22;4089;52.420;13.334;2023-07-02T12:14:52;22.50;96.80
8093;DHT22;4089;52.420;13.334;2023-07-02T12:17:19;22.20;96.90
8093;DHT22;4089;52.420;13.334;2023-07-02T12:19:46;21.80;97.60
8093;DHT22;4089;52.420;13.334;2023-07-02T12:22:12;21.80;98.60
8093;DHT22;4089;52.420;13.334;2023-07-02T12:24:43;22.00;97.60
8093;DHT22;4089;52.420;13.334;2023-07-02T12:27:10;21.90;95.50
8093;DHT22;4089;52.420;13.334;2023-07-02T12:29:37;22.00;95.30
8093;DHT22;4089;52.420;13.334;2023-07-02T12:32:05;22.00;94.50
8093;DHT22;4089;52.420;13.334;2023-07-02T12:34:32;22.40;95.20
8093;DHT22;4089;52.420;13.334;2023-07-02T12:36:59;22.70;95.20
8093;DHT22;4089;52.420;13.334;2023-07-02T12:39:25;22.50;94.40
8093;DHT22;4089;52.420;13.334;2023-07-02T12:41:53;22.30;94.30
8093;DHT22;4089;52.420;13.334;2023-07-02T12:44:20;22.30;95.30
8093;DHT22;4089;52.420;13.334;2023-07-02T12:46:47;22.40;95.20
8093;DHT22;4089;52.420;13.334;2023-07-02T12:49:14;22.30;95.00
8093;DHT22;4089;52.420;13.334;2023-07-02T12:51:41;22.20;94.80
8093;DHT22;4089;52.420;13.334;2023-07-02T12:54:08;22.00;93.40
8093;DHT22;4089;52.420;13.334;2023-07-02T12:56:34;22.10;94.10
8093;DHT22;4089;52.420;13.334;2023-07-02T12:59:02;22.20;92.50
8093;DHT22;4089;52.420;13.334;2023-07-02T13:01:29;22.50;93.30
8093;DHT22;4089;52.420;13.334;2023-07-02T13:03:56;22.60;92.20
8093;DHT22;4089;52.420;13.334;2023-07-02T13:06:23;22.70;91.20
8093;DHT22;4089;52.420;13.334;2023-07-02T13:08:50;22.80;90.10
8093;DHT22;4089;52.420;13.334;2023-07-02T13:11:18;23.00;92.10
8093;DHT22;4089;52.420;13.334;2023-07-02T13:13:44;23.20;90.70
8093;DHT22;4089;52.420;13.334;2023-07-02T13:16:11;23.10;89.60
8093;DHT22;4089;52.420;13.334;2023-07-02T13:18:38;23.20;88.00
8093;DHT22;4089;52.420;13.334;2023-07-02T13:21:05;23.20;88.80
8093;DHT22;4089;52.420;13.334;2023-07-02T13:23:32;23.10;84.50
8093;DHT22;4089;52.420;13.334;2023-07-02T13:25:58;22.90;82.20
8093;DHT22;4089;52.420;13.334;2023-07-02T13:28:25;23.10;80.70
8093;DHT22;4089;52.420;13.334;2023-07-02T13:30:54;23.00;80.90
8093;DHT22;4089;52.420;13.334;2023-07-02T13:33:21;23.10;83.10
8093;DHT22;4089;52.420;13.334;2023-07-02T13:35:48;23.60;81.40
8093;DHT22;4089;52.420;13.334;2023-07-02T13:38:16;24.10;78.70
8093;DHT22;4089;52.420;13.334;2023-07-02T13:40:43;24.20;75.60
8093;DHT22;4089;52.420;13.334;2023-07-02T13:43:09;24.50;72.90
8093;DHT22;4089;52.420;13.334;2023-07-02T13:45:36;24.70;72.30
8093;DHT22;4089;52.420;13.334;2023-07-02T13:48:03;24.90;68.80
8093;DHT22;4089;52.420;13.334;2023-07-02T13:50:31;25.10;68.70
8093;DHT22;4089;52.420;13.334;2023-07-02T13:52:58;24.90;67.10
8093;DHT22;4089;52.420;13.334;2023-07-02T13:55:25;25.20;66.60
8093;DHT22;4089;52.420;13.334;2023-07-02T13:57:54;26.00;69.10
8093;DHT22;4089;52.420;13.334;2023-07-02T14:00:24;25.90;62.00
8093;DHT22;4089;52.420;13.334;2023-07-02T14:02:51;25.40;58.90
8093;DHT22;4089;52.420;13.334;2023-07-02T14:05:18;25.00;61.00
8093;DHT22;4089;52.420;13.334;2023-07-02T14:07:46;24.90;57.30
8093;DHT22;4089;52.420;13.334;2023-07-02T14:10:13;25.60;57.90
8093;DHT22;4089;52.420;13.334;2023-07-02T14:12:41;25.90;55.90
8093;DHT22;4089;52.420;13.334;2023-07-02T14:15:09;25.70;55.80
8093;DHT22;4089;52.420;13.334;2023-07-02T14:17:36;25.70;56.40
8093;DHT22;4089;52.420;13.334;2023-07-02T14:20:04;25.40;54.80
8093;DHT22;4089;52.420;13.334;2023-07-02T14:22:31;25.20;54.70
8093;DHT22;4089;52.420;13.334;2023-07-02T14:24:57;25.00;55.30
8093;DHT22;4089;52.420;13.334;2023-07-02T14:27:24;25.00;57.50
8093;DHT22;4089;52.420;13.334;2023-07-02T14:29:51;24.90;57.70
8093;DHT22;4089;52.420;13.334;2023-07-02T14:32:18;24.50;56.60
8093;DHT22;4089;52.420;13.334;2023-07-02T14:34:45;24.20;54.10
8093;DHT22;4089;52.420;13.334;2023-07-02T14:37:12;24.00;55.00
8093;DHT22;4089;52.420;13.334;2023-07-02T14:39:39;23.80;52.90
8093;DHT22;4089;52.420;13.334;2023-07-02T14:42:13;23.80;54.00
8093;DHT22;4089;52.420;13.334;2023-07-02T14:44:40;23.80;53.70
8093;DHT22;4089;52.420;13.334;2023-07-02T14:47:07;23.70;53.00
8093;DHT22;4089;52.420;13.334;2023-07-02T14:49:34;23.80;55.50
8093;DHT22;4089;52.420;13.334;2023-07-02T14:52:01;23.60;52.60
8093;DHT22;4089;52.420;13.334;2023-07-02T14:54:27;23.30;51.30
8093;DHT22;4089;52.420;13.334;2023-07-02T14:56:54;23.70;53.80
8093;DHT22;4089;52.420;13.334;2023-07-02T14:59:21;23.90;52.60
8093;DHT22;4089;52.420;13.334;2023-07-02T15:01:48;23.60;51.90
8093;DHT22;4089;52.420;13.334;2023-07-02T15:04:15;23.30;52.10
8093;DHT22;4089;52.420;13.334;2023-07-02T15:06:42;23.40;53.20
8093;DHT22;4089;52.420;13.334;2023-07-02T15:09:09;23.40;53.70
8093;DHT22;4089;52.420;13.334;2023-07-02T15:11:36;23.40;52.50
8093;DHT22;4089;52.420;13.334;2023-07-02T15:14:03;23.30;52.30
8093;DHT22;4089;52.420;13.334;2023-07-02T15:16:29;22.90;52.40
8093;DHT22;4089;52.420;13.334;2023-07-02T15:18:56;23.00;52.50
8093;DHT22;4089;52.420;13.334;2023-07-02T15:21:23;23.30;52.90
8093;DHT22;4089;52.420;13.334;2023-07-02T15:23:51;23.10;54.10
8093;DHT22;4089;52.420;13.334;2023-07-02T15:26:18;23.10;53.60
8093;DHT22;4089;52.420;13.334;2023-07-02T15:28:44;23.00;54.40
8093;DHT22;4089;52.420;13.334;2023-07-02T15:31:11;23.00;54.00
8093;DHT22;4089;52.420;13.334;2023-07-02T15:33:38;23.00;55.60
8093;DHT22;4089;52.420;13.334;2023-07-02T15:36:07;23.20;55.90
8093;DHT22;4089;52.420;13.334;2023-07-02T15:38:37;23.10;56.70
8093;DHT22;4089;52.420;13.334;2023-07-02T15:43:32;23.10;54.40
8093;DHT22;4089;52.420;13.334;2023-07-02T15:45:59;23.30;54.80
8093;DHT22;4089;52.420;13.334;2023-07-02T15:48:26;23.20;53.80
8093;DHT22;4089;52.420;13.334;2023-07-02T15:50:55;23.20;54.50
8093;DHT22;4089;52.420;13.334;2023-07-02T15:53:22;23.20;54.50
8093;DHT22;4089;52.420;13.334;2023-07-02T15:55:56;23.00;54.40
8093;DHT22;4089;52.420;13.334;2023-07-02T15:58:27;23.00;53.80
8093;DHT22;4089;52.420;13.334;2023-07-02T16:00:55;23.20;56.30
8093;DHT22;4089;52.420;13.334;2023-07-02T16:03:22;23.10;55.10